createdAt,value
2023-12-15T00:00:39.188Z,10.73
2023-12-15T00:02:42.581Z,11.40
2023-12-15T00:04:46.992Z,11.00
2023-12-15T00:06:49.157Z,9.80
2023-12-15T00:08:52.282Z,10.90
2023-12-15T00:10:54.463Z,11.33
2023-12-15T00:12:57.660Z,10.37
2023-12-15T00:15:00.816Z,10.83
2023-12-15T00:17:03.237Z,10.90
2023-12-15T00:19:06.592Z,10.97
2023-12-15T00:21:11.082Z,10.90
2023-12-15T00:23:14.246Z,11.67
2023-12-15T00:25:16.429Z,11.37
2023-12-15T00:27:19.511Z,12.07
2023-12-15T00:29:23.217Z,11.90
2023-12-15T00:31:26.356Z,13.47
2023-12-15T00:33:29.677Z,12.13
2023-12-15T00:35:32.979Z,12.67
2023-12-15T00:37:37.653Z,12.90
2023-12-15T00:39:40.954Z,12.00
2023-12-15T00:41:44.030Z,11.93
2023-12-15T00:43:47.166Z,12.93
2023-12-15T00:45:50.284Z,13.20
2023-12-15T00:47:53.550Z,12.27
2023-12-15T00:49:55.789Z,13.03
2023-12-15T00:51:59.182Z,11.50
2023-12-15T00:54:03.650Z,12.33
2023-12-15T00:56:07.258Z,12.50
2023-12-15T00:58:10.396Z,13.30
2023-12-15T01:00:14.459Z,12.70
2023-12-15T01:02:17.561Z,13.30
2023-12-15T01:04:20.687Z,12.63
2023-12-15T01:06:24.271Z,12.77
2023-12-15T01:08:27.532Z,12.90
2023-12-15T01:10:33.030Z,12.73
2023-12-15T01:12:36.227Z,12.70
2023-12-15T01:14:39.364Z,14.00
2023-12-15T01:16:46.878Z,13.80
2023-12-15T01:18:50.403Z,13.53
2023-12-15T01:20:53.619Z,14.67
2023-12-15T01:22:55.860Z,14.13
2023-12-15T01:24:59.011Z,13.83
2023-12-15T01:27:03.461Z,13.97
2023-12-15T01:29:06.991Z,14.47
2023-12-15T01:31:10.155Z,15.67
2023-12-15T01:33:13.282Z,14.93
2023-12-15T01:35:16.568Z,14.57
2023-12-15T01:37:19.669Z,15.20
2023-12-15T01:39:22.838Z,14.67
2023-12-15T01:41:26.166Z,14.73
2023-12-15T01:43:30.620Z,14.43
2023-12-15T01:45:32.809Z,15.43
2023-12-15T01:47:36.451Z,14.80
2023-12-15T01:49:39.183Z,15.23
2023-12-15T01:51:42.644Z,15.63
2023-12-15T01:53:46.153Z,14.83
2023-12-15T01:55:49.261Z,16.17
2023-12-15T01:57:51.545Z,17.40
2023-12-15T01:59:56.127Z,17.17
2023-12-15T02:01:59.262Z,16.17
2023-12-15T02:04:02.455Z,17.57
2023-12-15T02:06:06.080Z,16.13
2023-12-15T02:08:09.483Z,16.57
2023-12-15T02:10:11.671Z,16.17
2023-12-15T02:12:14.869Z,16.57
2023-12-15T02:14:17.981Z,16.27
2023-12-15T02:16:22.456Z,15.77
2023-12-15T02:18:26.070Z,17.37
2023-12-15T02:20:29.329Z,16.43
2023-12-15T02:22:32.864Z,16.47
2023-12-15T02:24:35.965Z,17.00
2023-12-15T02:26:39.087Z,16.67
2023-12-15T02:28:42.200Z,16.90
2023-12-15T02:30:45.358Z,17.27
2023-12-15T02:32:48.622Z,17.43
2023-12-15T02:34:50.976Z,17.07
2023-12-15T02:36:54.221Z,17.27
2023-12-15T02:38:59.553Z,16.53
2023-12-15T02:41:02.690Z,15.13
2023-12-15T02:43:04.909Z,15.97
2023-12-15T02:45:09.160Z,16.73
2023-12-15T02:47:12.309Z,16.57
2023-12-15T02:49:19.514Z,16.33
2023-12-15T02:51:29.188Z,15.43
2023-12-15T02:53:32.319Z,15.77
2023-12-15T02:55:35.910Z,15.80
2023-12-15T02:57:39.211Z,16.83
2023-12-15T02:59:42.622Z,16.70
2023-12-15T03:01:44.789Z,15.77
2023-12-15T03:03:48.727Z,15.97
2023-12-15T03:05:51.873Z,15.63
2023-12-15T03:07:55.070Z,16.73
2023-12-15T03:09:58.309Z,17.47
2023-12-15T03:12:02.734Z,16.73
2023-12-15T03:14:04.904Z,16.27
2023-12-15T03:16:09.940Z,16.10
2023-12-15T03:18:13.090Z,16.97
2023-12-15T03:20:15.341Z,17.20
2023-12-15T03:22:18.455Z,16.97
2023-12-15T03:24:21.588Z,16.17
2023-12-15T03:26:24.752Z,16.60
2023-12-15T03:28:29.344Z,16.23
2023-12-15T03:30:32.481Z,17.57
2023-12-15T03:32:34.738Z,17.13
2023-12-15T03:34:37.878Z,17.97
2023-12-15T03:36:41.202Z,16.50
2023-12-15T03:38:43.385Z,16.73
2023-12-15T03:40:46.530Z,16.77
2023-12-15T03:42:49.687Z,16.90
2023-12-15T03:44:53.894Z,18.10
2023-12-15T03:46:57.166Z,17.53
2023-12-15T03:49:00.413Z,18.17
2023-12-15T03:51:02.658Z,18.40
2023-12-15T03:53:05.888Z,18.60
2023-12-15T03:55:09.443Z,18.90
2023-12-15T03:57:11.589Z,18.80
2023-12-15T03:59:14.797Z,18.20
2023-12-15T04:01:18.378Z,19.17
2023-12-15T04:03:21.679Z,18.77
2023-12-15T04:05:26.632Z,17.63
2023-12-15T04:07:29.914Z,19.73
2023-12-15T04:09:33.021Z,19.27
2023-12-15T04:11:36.264Z,18.30
2023-12-15T04:13:38.525Z,17.20
2023-12-15T04:15:41.697Z,19.33
2023-12-15T04:17:46.429Z,19.47
2023-12-15T04:19:49.655Z,18.83
2023-12-15T04:21:52.758Z,17.70
2023-12-15T04:23:55.877Z,18.20
2023-12-15T04:25:59.397Z,17.90
2023-12-15T04:28:02.711Z,18.63
2023-12-15T04:30:06.986Z,16.73
2023-12-15T04:32:09.483Z,16.50
2023-12-15T04:34:14.005Z,15.30
2023-12-15T04:36:20.470Z,16.53
2023-12-15T04:38:22.638Z,16.30
2023-12-15T04:40:25.762Z,16.60
2023-12-15T04:42:29.873Z,15.53
2023-12-15T04:44:32.160Z,15.47
2023-12-15T04:46:35.378Z,16.57
2023-12-15T04:48:38.600Z,16.37
2023-12-15T04:50:43.285Z,16.23
2023-12-15T04:52:45.518Z,15.70
2023-12-15T04:54:48.623Z,16.77
2023-12-15T04:56:51.836Z,17.53
2023-12-15T04:58:55.005Z,17.47
2023-12-15T05:00:58.479Z,17.33
2023-12-15T05:03:01.733Z,17.17
2023-12-15T05:05:05.096Z,18.33
2023-12-15T05:07:09.567Z,17.10
2023-12-15T05:09:12.651Z,19.83
2023-12-15T05:11:15.887Z,19.93
2023-12-15T05:13:19.069Z,19.03
2023-12-15T05:15:22.327Z,20.40
2023-12-15T05:17:27.210Z,20.00
2023-12-15T05:19:30.670Z,19.57
2023-12-15T05:21:33.798Z,18.90
2023-12-15T05:23:39.493Z,20.70
2023-12-15T05:25:42.682Z,20.20
2023-12-15T05:27:45.811Z,19.73
2023-12-15T05:29:48.027Z,18.70
2023-12-15T05:31:51.180Z,17.60
2023-12-15T05:33:53.461Z,19.67
2023-12-15T05:35:56.666Z,18.60
2023-12-15T05:37:59.878Z,18.43
2023-12-15T05:40:04.633Z,18.43
2023-12-15T05:42:07.132Z,18.37
2023-12-15T05:44:10.320Z,17.23
2023-12-15T05:46:12.500Z,17.70
2023-12-15T05:48:16.736Z,19.23
2023-12-15T05:50:20.162Z,18.17
2023-12-15T05:52:23.668Z,18.60
2023-12-15T05:54:27.109Z,17.77
2023-12-15T05:56:31.946Z,17.53
2023-12-15T05:58:35.221Z,16.60
2023-12-15T06:00:38.537Z,16.60
2023-12-15T06:02:44.026Z,17.23
2023-12-15T06:04:47.400Z,16.97
2023-12-15T06:06:51.079Z,15.77
2023-12-15T06:08:53.342Z,16.33
2023-12-15T06:10:56.599Z,16.90
2023-12-15T06:13:01.120Z,16.57
2023-12-15T06:15:04.808Z,16.73
2023-12-15T06:17:08.258Z,16.60
2023-12-15T06:19:11.728Z,16.47
2023-12-15T06:21:24.415Z,17.30
2023-12-15T06:23:27.970Z,16.70
2023-12-15T06:25:31.298Z,16.80
2023-12-15T06:27:35.340Z,15.40
2023-12-15T06:29:41.048Z,16.83
2023-12-15T06:31:47.245Z,16.37
2023-12-15T06:33:50.695Z,16.67
2023-12-15T06:35:52.981Z,17.93
2023-12-15T06:37:56.131Z,16.87
2023-12-15T06:39:59.315Z,17.17
2023-12-15T06:42:04.039Z,16.97
2023-12-15T06:44:07.581Z,17.73
2023-12-15T06:46:11.329Z,15.23
2023-12-15T06:48:14.633Z,16.37
2023-12-15T06:50:17.910Z,16.37
2023-12-15T06:52:21.085Z,17.73
2023-12-15T06:54:24.267Z,15.87
2023-12-15T06:56:27.452Z,17.40
2023-12-15T06:58:30.843Z,16.93
2023-12-15T07:00:34.192Z,16.00
2023-12-15T07:02:39.379Z,17.27
2023-12-15T07:04:42.845Z,16.40
2023-12-15T07:06:45.159Z,16.00
2023-12-15T07:08:51.619Z,17.47
2023-12-15T07:10:54.905Z,17.53
2023-12-15T07:12:58.108Z,18.03
2023-12-15T07:15:01.635Z,17.03
2023-12-15T07:17:04.826Z,19.20
2023-12-15T07:19:09.580Z,17.37
2023-12-15T07:21:12.804Z,17.30
2023-12-15T07:23:15.999Z,17.33
2023-12-15T07:25:19.234Z,17.20
2023-12-15T07:27:22.381Z,18.03
2023-12-15T07:29:25.909Z,18.13
2023-12-15T07:31:29.048Z,17.03
2023-12-15T07:33:32.209Z,17.07
2023-12-15T07:35:36.806Z,18.23
2023-12-15T07:37:40.142Z,17.23
2023-12-15T07:39:42.355Z,17.97
2023-12-15T07:41:45.473Z,16.00
2023-12-15T07:43:48.884Z,16.90
2023-12-15T07:45:51.029Z,16.00
2023-12-15T07:47:55.146Z,16.93
2023-12-15T07:49:58.465Z,15.67
2023-12-15T07:52:03.202Z,17.47
2023-12-15T07:54:06.857Z,16.23
2023-12-15T07:56:10.463Z,17.17
2023-12-15T07:58:13.600Z,17.23
2023-12-15T08:00:16.002Z,17.67
2023-12-15T08:02:21.538Z,17.27
2023-12-15T08:04:24.669Z,16.27
2023-12-15T08:06:28.892Z,16.90
2023-12-15T08:08:33.628Z,16.47
2023-12-15T08:10:36.761Z,16.37
2023-12-15T08:12:40.786Z,18.00
2023-12-15T08:14:43.958Z,17.30
2023-12-15T08:16:47.156Z,16.50
2023-12-15T08:18:51.515Z,16.33
2023-12-15T08:20:54.784Z,16.90
2023-12-15T08:22:57.974Z,16.53
2023-12-15T08:25:02.538Z,16.60
2023-12-15T08:27:06.072Z,15.87
2023-12-15T08:29:09.259Z,16.53
2023-12-15T08:31:11.423Z,16.33
2023-12-15T08:33:14.802Z,15.63
2023-12-15T08:35:18.371Z,16.13
2023-12-15T08:37:20.580Z,16.53
2023-12-15T08:39:23.777Z,16.17
2023-12-15T08:41:28.501Z,15.60
2023-12-15T08:43:33.348Z,16.70
2023-12-15T08:45:36.466Z,16.70
2023-12-15T08:47:40.303Z,16.50
2023-12-15T08:49:44.304Z,16.37
2023-12-15T08:51:47.511Z,13.97
2023-12-15T08:53:50.658Z,15.97
2023-12-15T08:55:53.982Z,16.10
2023-12-15T08:57:58.516Z,15.90
2023-12-15T09:00:01.687Z,17.47
2023-12-15T09:02:05.942Z,16.17
2023-12-15T09:04:13.348Z,16.03
2023-12-15T09:06:27.142Z,16.23
2023-12-15T09:08:33.536Z,16.50
2023-12-15T09:10:42.290Z,16.83
2023-12-15T09:12:45.534Z,15.63
2023-12-15T09:14:50.203Z,16.33
2023-12-15T09:16:55.248Z,16.40
2023-12-15T09:19:01.845Z,17.10
2023-12-15T09:21:05.589Z,17.73
2023-12-15T09:23:08.399Z,17.53
2023-12-15T09:25:14.533Z,16.47
2023-12-15T09:27:17.699Z,17.57
2023-12-15T09:29:21.016Z,18.87
2023-12-15T09:31:38.533Z,19.67
2023-12-15T09:33:44.890Z,19.40
2023-12-15T09:35:52.033Z,19.27
2023-12-15T09:38:05.015Z,19.80
2023-12-15T09:40:12.165Z,19.97
2023-12-15T09:42:14.627Z,20.33
2023-12-15T09:44:18.360Z,19.57
2023-12-15T09:46:25.555Z,19.57
2023-12-15T09:48:32.161Z,19.17
2023-12-15T09:50:36.759Z,20.50
2023-12-15T09:53:06.905Z,21.10
2023-12-15T09:57:04.429Z,21.17
2023-12-15T09:58:19.515Z,20.17
2023-12-15T10:00:49.528Z,20.43
2023-12-15T10:03:18.298Z,21.57
2023-12-15T10:05:25.357Z,20.47
2023-12-15T10:07:31.071Z,20.67
2023-12-15T10:09:51.177Z,20.90
2023-12-15T10:18:46.687Z,21.27
2023-12-15T10:20:52.211Z,21.07
2023-12-15T10:23:08.467Z,22.60
2023-12-15T10:25:21.375Z,22.17
2023-12-15T10:27:25.906Z,21.50
2023-12-15T10:29:29.572Z,22.03
2023-12-15T10:32:02.619Z,22.37
2023-12-15T10:37:19.120Z,21.47
2023-12-15T10:39:25.920Z,22.97
2023-12-15T10:41:34.254Z,21.93
2023-12-15T10:44:22.181Z,21.63
2023-12-15T10:46:32.447Z,22.43
2023-12-15T10:48:41.483Z,21.67
2023-12-15T10:50:50.356Z,22.50
2023-12-15T10:53:12.612Z,21.37
2023-12-15T10:55:20.937Z,20.37
2023-12-15T10:57:31.496Z,22.50
2023-12-15T10:59:35.219Z,21.00
2023-12-15T11:01:48.819Z,21.70
2023-12-15T11:03:56.098Z,20.47
2023-12-15T11:06:04.114Z,21.50
2023-12-15T11:08:18.398Z,21.57
2023-12-15T11:10:24.932Z,21.27
2023-12-15T11:15:41.941Z,21.07
2023-12-15T11:17:52.071Z,21.93
2023-12-15T11:20:02.896Z,22.23
2023-12-15T11:22:12.466Z,20.30
2023-12-15T11:24:16.939Z,20.57
2023-12-15T11:26:23.736Z,20.70
2023-12-15T11:28:28.307Z,19.00
2023-12-15T11:30:35.649Z,19.00
2023-12-15T11:32:39.508Z,19.67
2023-12-15T11:34:43.453Z,21.07
2023-12-15T11:36:47.699Z,19.93
2023-12-15T11:38:50.370Z,20.37
2023-12-15T11:40:57.102Z,20.30
2023-12-15T11:43:00.252Z,19.83
2023-12-15T11:45:07.763Z,19.03
2023-12-15T11:47:10.842Z,21.10
2023-12-15T11:49:24.301Z,22.27
2023-12-15T11:51:29.620Z,18.83
2023-12-15T11:53:33.523Z,19.97
2023-12-15T11:55:37.333Z,19.50
2023-12-15T11:57:41.756Z,18.07
2023-12-15T11:59:46.748Z,18.23
2023-12-15T12:01:50.863Z,19.00
2023-12-15T12:03:54.043Z,18.93
2023-12-15T12:05:58.635Z,17.50
2023-12-15T12:08:02.062Z,20.27
2023-12-15T12:10:06.734Z,20.20
2023-12-15T12:12:09.969Z,20.13
2023-12-15T12:14:14.528Z,17.70
2023-12-15T12:16:18.234Z,19.47
2023-12-15T12:18:22.145Z,17.70
2023-12-15T12:20:29.774Z,18.60
2023-12-15T12:22:33.176Z,17.83
2023-12-15T12:24:36.350Z,18.13
2023-12-15T12:26:38.700Z,19.80
2023-12-15T12:28:42.580Z,19.77
2023-12-15T12:30:47.103Z,18.10
2023-12-15T12:32:50.717Z,18.57
2023-12-15T12:34:54.072Z,19.13
2023-12-15T12:36:56.429Z,19.03
2023-12-15T12:39:01.400Z,18.23
2023-12-15T12:41:09.262Z,18.33
2023-12-15T12:43:18.371Z,18.37
2023-12-15T12:45:21.811Z,18.90
2023-12-15T12:47:29.152Z,18.00
2023-12-15T12:49:52.898Z,17.30
2023-12-15T12:51:56.785Z,17.73
2023-12-15T12:54:00.011Z,17.67
2023-12-15T12:56:02.247Z,16.10
2023-12-15T12:58:05.739Z,16.30
2023-12-15T13:00:08.817Z,15.60
2023-12-15T13:02:18.758Z,16.60
2023-12-15T13:04:26.715Z,16.73
2023-12-15T13:06:30.206Z,16.00
2023-12-15T13:08:33.413Z,14.90
2023-12-15T13:10:38.872Z,15.97
2023-12-15T13:12:43.803Z,15.53
2023-12-15T13:14:46.805Z,14.93
2023-12-15T13:16:51.032Z,17.57
2023-12-15T13:22:08.399Z,13.57
2023-12-15T13:24:26.975Z,15.37
2023-12-15T13:26:31.668Z,16.40
2023-12-15T13:28:36.532Z,16.07
2023-12-15T13:30:40.223Z,15.87
2023-12-15T13:32:42.903Z,14.93
2023-12-15T13:34:47.400Z,15.00
2023-12-15T13:36:50.618Z,13.07
2023-12-15T13:38:53.910Z,12.03
2023-12-15T13:40:58.487Z,10.57
2023-12-15T13:43:04.500Z,10.30
2023-12-15T13:45:08.249Z,9.73
2023-12-15T13:47:11.514Z,8.30
2023-12-15T13:49:16.892Z,8.77
2023-12-15T13:51:20.131Z,7.40
2023-12-15T13:53:26.488Z,8.33
2023-12-15T13:55:29.668Z,7.67
2023-12-15T13:57:33.123Z,7.20
2023-12-15T13:59:40.728Z,7.23
2023-12-15T14:01:43.453Z,7.50
2023-12-15T14:03:53.012Z,7.57
2023-12-15T14:05:57.108Z,7.30
2023-12-15T14:08:07.855Z,7.60
2023-12-15T14:10:17.605Z,7.77
2023-12-15T14:12:21.034Z,7.70
2023-12-15T14:14:26.788Z,8.40
2023-12-15T14:16:41.461Z,7.80
2023-12-15T14:18:51.042Z,8.27
2023-12-15T14:20:54.208Z,8.40
2023-12-15T14:22:57.618Z,7.93
2023-12-15T14:25:05.702Z,8.07
2023-12-15T14:27:08.171Z,7.50
2023-12-15T14:29:11.588Z,8.37
2023-12-15T14:31:14.963Z,8.20
2023-12-15T14:33:20.154Z,7.73
2023-12-15T14:35:23.584Z,7.93
2023-12-15T14:37:27.771Z,8.27
2023-12-15T14:39:31.027Z,7.77
2023-12-15T14:41:36.087Z,7.77
2023-12-15T14:43:39.443Z,7.40
2023-12-15T14:45:42.820Z,8.27
2023-12-15T14:47:46.238Z,8.23
2023-12-15T14:50:11.647Z,8.43
2023-12-15T14:52:14.943Z,9.03
2023-12-15T14:54:29.009Z,7.97
2023-12-15T14:57:25.573Z,8.90
2023-12-15T15:00:02.025Z,9.40
2023-12-15T15:02:22.985Z,11.27
2023-12-15T15:04:48.992Z,11.80
2023-12-15T15:06:56.338Z,13.90
2023-12-15T15:08:59.779Z,14.80
2023-12-15T15:11:03.154Z,14.00
2023-12-15T15:13:06.325Z,13.57
2023-12-15T15:15:10.480Z,12.60
2023-12-15T15:17:13.912Z,12.30
2023-12-15T15:19:17.285Z,11.93
2023-12-15T15:21:20.432Z,12.93
2023-12-15T15:23:24.933Z,10.80
2023-12-15T15:25:28.125Z,11.17
2023-12-15T15:27:31.273Z,10.50
2023-12-15T15:29:33.424Z,11.10
2023-12-15T15:31:36.616Z,10.50
2023-12-15T15:33:39.825Z,10.47
2023-12-15T15:35:43.111Z,9.97
2023-12-15T15:37:45.288Z,10.67
2023-12-15T15:39:49.797Z,10.20
2023-12-15T15:41:53.354Z,10.90
2023-12-15T15:44:05.735Z,10.40
2023-12-15T15:46:19.217Z,11.10
2023-12-15T15:48:22.648Z,12.73
2023-12-15T15:50:26.802Z,13.80
2023-12-15T15:52:28.989Z,13.97
2023-12-15T15:54:32.109Z,14.50
2023-12-15T15:56:36.694Z,13.83
2023-12-15T15:58:39.540Z,13.20
2023-12-15T16:00:42.692Z,14.17
2023-12-15T16:02:47.021Z,13.83
2023-12-15T16:04:49.840Z,13.53
2023-12-15T16:06:53.073Z,12.50
2023-12-15T16:08:56.855Z,13.50
2023-12-15T16:11:00.164Z,12.87
2023-12-15T16:13:04.712Z,12.83
2023-12-15T16:15:08.587Z,14.97
2023-12-15T16:17:10.955Z,13.27
2023-12-15T16:19:15.807Z,11.77
2023-12-15T16:21:18.111Z,13.23
2023-12-15T16:23:22.485Z,12.83
2023-12-15T16:25:25.687Z,13.17
2023-12-15T16:27:29.822Z,10.93
2023-12-15T16:29:33.972Z,12.07
2023-12-15T16:31:37.212Z,11.17
2023-12-15T16:33:40.542Z,12.03
2023-12-15T16:35:45.948Z,11.20
2023-12-15T16:37:49.107Z,11.13
2023-12-15T16:39:52.836Z,11.90
2023-12-15T16:41:55.152Z,11.00
2023-12-15T16:43:58.278Z,11.70
2023-12-15T16:46:02.815Z,11.23
2023-12-15T16:48:06.713Z,11.53
2023-12-15T16:50:09.380Z,11.10
2023-12-15T16:52:12.594Z,11.60
2023-12-15T16:54:14.776Z,12.73
2023-12-15T16:56:17.905Z,11.70
2023-12-15T16:58:21.328Z,13.07
2023-12-15T17:00:25.039Z,12.83
2023-12-15T17:02:29.574Z,13.20
2023-12-15T17:04:32.823Z,13.50
2023-12-15T17:06:36.358Z,12.87
2023-12-15T17:08:39.868Z,13.73
2023-12-15T17:10:43.250Z,12.57
2023-12-15T17:12:46.513Z,12.73
2023-12-15T17:14:49.949Z,13.60
2023-12-15T17:16:53.252Z,13.10
2023-12-15T17:18:57.945Z,13.10
2023-12-15T17:21:02.405Z,13.17
2023-12-15T17:23:06.704Z,11.83
2023-12-15T17:25:10.443Z,11.87
2023-12-15T17:27:13.750Z,11.80
2023-12-15T17:29:17.037Z,11.80
2023-12-15T17:31:23.493Z,12.13
2023-12-15T17:33:27.469Z,11.33
2023-12-15T17:35:32.168Z,11.67
2023-12-15T17:37:35.111Z,10.97
2023-12-15T17:39:38.365Z,11.63
2023-12-15T17:41:41.331Z,12.87
2023-12-15T17:43:45.443Z,13.67
2023-12-15T17:45:48.825Z,13.23
2023-12-15T17:47:52.254Z,13.37
2023-12-15T17:49:55.666Z,46.80
2023-12-15T17:52:02.931Z,17.77
2023-12-15T17:54:06.626Z,17.40
2023-12-15T17:56:13.245Z,15.40
2023-12-15T17:58:19.380Z,14.93
2023-12-15T18:00:23.046Z,14.83
2023-12-15T18:02:27.365Z,13.47
2023-12-15T18:04:30.931Z,14.43
2023-12-15T18:06:34.539Z,13.97
2023-12-15T18:08:42.682Z,13.03
2023-12-15T18:10:49.308Z,12.83
2023-12-15T18:12:54.039Z,12.40
2023-12-15T18:14:57.473Z,13.23
2023-12-15T18:17:00.960Z,12.00
2023-12-15T18:19:04.434Z,55.20
2023-12-15T18:21:06.776Z,16.03
2023-12-15T18:23:13.396Z,13.97
2023-12-15T18:25:18.026Z,16.53
2023-12-15T18:27:21.252Z,14.37
2023-12-15T18:29:26.207Z,13.93
2023-12-15T18:31:29.444Z,14.40
2023-12-15T18:33:32.691Z,14.27
2023-12-15T18:35:35.799Z,14.20
2023-12-15T18:37:39.573Z,15.33
2023-12-15T18:39:41.904Z,16.10
2023-12-15T18:41:47.994Z,16.73
2023-12-15T18:43:51.122Z,15.67
2023-12-15T18:45:55.140Z,15.20
2023-12-15T18:47:58.367Z,14.40
2023-12-15T18:50:02.726Z,14.57
2023-12-15T18:52:06.192Z,13.97
2023-12-15T18:54:10.013Z,14.70
2023-12-15T18:56:19.315Z,17.60
2023-12-15T18:58:23.944Z,18.87
2023-12-15T19:00:27.476Z,15.07
2023-12-15T19:02:32.134Z,16.13
2023-12-15T19:04:35.386Z,14.10
2023-12-15T19:06:38.785Z,13.63
2023-12-15T19:08:41.898Z,14.60
2023-12-15T19:10:45.084Z,14.30
2023-12-15T19:12:48.252Z,14.63
2023-12-15T19:14:52.763Z,13.70
2023-12-15T19:16:56.067Z,14.37
2023-12-15T19:18:58.340Z,14.60
2023-12-15T19:21:01.491Z,14.00
2023-12-15T19:23:04.650Z,13.43
2023-12-15T19:25:08.411Z,14.30
2023-12-15T19:27:11.817Z,13.90
2023-12-15T19:29:14.946Z,14.07
2023-12-15T19:31:19.473Z,13.03
2023-12-15T19:33:22.813Z,12.10
2023-12-15T19:35:26.295Z,13.07
2023-12-15T19:37:29.512Z,12.70
2023-12-15T19:39:31.801Z,14.70
2023-12-15T19:41:35.546Z,12.60
2023-12-15T19:43:38.673Z,13.80
2023-12-15T19:45:43.392Z,13.80
2023-12-15T19:47:47.939Z,13.57
2023-12-15T19:49:51.476Z,13.27
2023-12-15T19:51:54.717Z,14.37
2023-12-15T19:54:02.696Z,14.23
2023-12-15T19:56:11.813Z,16.30
2023-12-15T19:58:15.008Z,16.23
2023-12-15T20:00:18.653Z,17.37
2023-12-15T20:02:22.578Z,17.93
2023-12-15T20:04:30.886Z,18.10
2023-12-15T20:06:35.604Z,16.93
2023-12-15T20:08:37.793Z,16.27
2023-12-15T20:10:42.248Z,16.30
2023-12-15T20:12:45.371Z,16.90
2023-12-15T20:14:48.524Z,16.70
2023-12-15T20:16:52.623Z,18.50
2023-12-15T20:18:55.898Z,19.53
2023-12-15T20:20:59.618Z,16.27
2023-12-15T20:23:02.727Z,18.07
2023-12-15T20:25:07.734Z,17.97
2023-12-15T20:27:11.473Z,17.73
2023-12-15T20:29:14.780Z,20.87
2023-12-15T20:31:18.175Z,18.27
2023-12-15T20:33:24.499Z,17.80
2023-12-15T20:35:28.650Z,18.77
2023-12-15T20:37:33.901Z,17.90
2023-12-15T20:39:37.002Z,17.80
2023-12-15T20:41:40.112Z,18.50
2023-12-15T20:43:43.850Z,16.97
2023-12-15T20:45:47.001Z,17.37
2023-12-15T20:47:50.619Z,17.07
2023-12-15T20:49:53.815Z,16.73
2023-12-15T20:51:57.952Z,15.40
2023-12-15T20:54:02.537Z,16.20
2023-12-15T20:56:05.078Z,16.40
2023-12-15T20:58:08.241Z,15.33
2023-12-15T21:00:14.068Z,16.43
2023-12-15T21:02:17.267Z,15.77
2023-12-15T21:04:20.411Z,16.43
2023-12-15T21:06:24.326Z,16.13
2023-12-15T21:08:27.791Z,17.30
2023-12-15T21:10:32.297Z,15.80
2023-12-15T21:12:36.068Z,16.20
2023-12-15T21:14:39.458Z,15.20
2023-12-15T21:16:44.337Z,15.30
2023-12-15T21:18:46.697Z,15.40
2023-12-15T21:20:49.897Z,16.63
2023-12-15T21:22:53.060Z,15.40
2023-12-15T21:24:55.452Z,16.40
2023-12-15T21:27:00.322Z,15.63
2023-12-15T21:29:03.628Z,15.67
2023-12-15T21:31:07.269Z,14.90
2023-12-15T21:33:36.216Z,15.53
2023-12-15T21:36:14.902Z,14.27
2023-12-15T21:38:20.709Z,14.70
2023-12-15T21:40:24.182Z,14.00
2023-12-15T21:42:28.695Z,16.73
2023-12-15T21:44:31.866Z,14.63
2023-12-15T21:46:37.667Z,14.70
2023-12-15T21:48:39.973Z,15.20
2023-12-15T21:50:43.208Z,14.17
2023-12-15T21:52:46.802Z,13.50
2023-12-15T21:55:17.243Z,13.90
2023-12-15T22:00:34.015Z,13.77
2023-12-15T22:05:49.326Z,13.17
2023-12-15T22:08:12.741Z,13.20
2023-12-15T22:10:37.819Z,13.87
2023-12-15T22:12:41.328Z,12.77
2023-12-15T22:14:45.917Z,12.50
2023-12-15T22:16:50.667Z,12.77
2023-12-15T22:18:53.889Z,12.23
2023-12-15T22:20:56.177Z,11.17
2023-12-15T22:22:59.289Z,11.30
2023-12-15T22:25:02.462Z,11.57
2023-12-15T22:27:06.880Z,11.17
2023-12-15T22:29:09.967Z,11.80
2023-12-15T22:31:13.114Z,11.07
2023-12-15T22:33:17.641Z,10.63
2023-12-15T22:35:20.766Z,10.60
2023-12-15T22:37:23.996Z,10.87
2023-12-15T22:39:27.411Z,12.13
2023-12-15T22:41:29.581Z,11.80
2023-12-15T22:43:33.046Z,13.13
2023-12-15T22:45:36.693Z,13.47
2023-12-15T22:47:39.533Z,12.80
2023-12-15T22:49:45.822Z,12.80
2023-12-15T22:51:49.376Z,13.03
2023-12-15T22:53:52.541Z,13.63
2023-12-15T22:55:54.732Z,12.93
2023-12-15T22:57:58.076Z,12.60
2023-12-15T23:00:01.269Z,12.90
2023-12-15T23:02:04.402Z,13.60
2023-12-15T23:04:09.293Z,12.70
2023-12-15T23:06:13.874Z,13.47
2023-12-15T23:08:16.999Z,13.73
2023-12-15T23:10:20.209Z,13.87
2023-12-15T23:12:23.687Z,13.40
2023-12-15T23:14:26.798Z,13.90
2023-12-15T23:16:29.937Z,14.17
2023-12-15T23:18:33.558Z,14.03
2023-12-15T23:20:37.714Z,14.13
2023-12-15T23:22:42.130Z,13.33
2023-12-15T23:24:45.337Z,13.40
2023-12-15T23:26:49.526Z,13.17
2023-12-15T23:28:52.809Z,12.67
2023-12-15T23:30:55.122Z,13.70
2023-12-15T23:32:58.342Z,14.87
2023-12-15T23:35:00.704Z,14.73
2023-12-15T23:37:04.408Z,14.93
2023-12-15T23:39:10.140Z,13.87
2023-12-15T23:41:13.246Z,13.87
2023-12-15T23:43:15.435Z,14.03
2023-12-15T23:45:18.688Z,14.03
2023-12-15T23:47:21.773Z,14.73
2023-12-15T23:49:26.311Z,12.77
2023-12-15T23:51:29.457Z,10.53
2023-12-15T23:53:32.818Z,10.73
2023-12-15T23:55:38.267Z,9.07
2023-12-15T23:57:42.068Z,7.93
2023-12-15T23:59:45.282Z,7.67
